Time;durP1;ratioP1;P1;durP2;ratioP2;P2;SDS_P1;SDS_P2;PMS_P1;PMS_P2;Temp;Humidity;BMP_temperature;BMP_pressure;BME280_temperature;BME280_humidity;BME280_pressure;Samples;Min_cycle;Max_cycle;Signal;HPM_P1;HPM_P2
2022/05/25 00:01:16;;;;;;;5.87;4.93;;;16.00;99.90;;;;;;5077467;28;20197;-71
2022/05/25 00:03:43;;;;;;;7.57;5.57;;;16.00;99.90;;;;;;5077282;28;20307;-71
2022/05/25 00:06:11;;;;;;;5.88;5.18;;;16.10;99.90;;;;;;5075969;28;20197;-71
2022/05/25 00:08:40;;;;;;;8.80;5.80;;;16.10;99.90;;;;;;5076404;28;20601;-71
2022/05/25 00:11:07;;;;;;;6.57;5.83;;;16.10;99.90;;;;;;5082533;28;20198;-70
2022/05/25 00:13:36;;;;;;;6.97;5.00;;;16.10;99.90;;;;;;5076969;28;20227;-71
2022/05/25 00:16:03;;;;;;;5.95;5.45;;;16.10;99.90;;;;;;5073405;28;20508;-72
2022/05/25 00:18:30;;;;;;;5.28;4.82;;;16.10;99.90;;;;;;5078092;28;20636;-71
2022/05/25 00:20:56;;;;;;;6.03;4.80;;;16.10;99.90;;;;;;5074720;28;20205;-71
2022/05/25 00:23:23;;;;;;;7.63;4.90;;;16.10;99.90;;;;;;5079130;28;20197;-71
2022/05/25 00:25:50;;;;;;;6.17;5.57;;;16.10;99.90;;;;;;5074311;28;20236;-72
2022/05/25 00:28:17;;;;;;;5.67;5.17;;;16.10;99.90;;;;;;5076880;28;20244;-70
2022/05/25 00:30:47;;;;;;;6.17;5.20;;;16.10;99.90;;;;;;5074926;28;20705;-71
2022/05/25 00:33:14;;;;;;;6.07;5.47;;;16.00;99.90;;;;;;5074895;28;20291;-71
2022/05/25 00:35:42;;;;;;;5.87;5.27;;;16.00;99.90;;;;;;5077351;28;20205;-71
2022/05/25 00:38:10;;;;;;;5.93;5.33;;;16.00;99.90;;;;;;5077035;28;20698;-70
2022/05/25 00:40:40;;;;;;;5.63;5.00;;;16.00;99.90;;;;;;5074781;28;20210;-71
2022/05/25 00:43:08;;;;;;;4.80;4.43;;;16.00;99.90;;;;;;5071120;28;20213;-70
2022/05/25 00:45:39;;;;;;;5.10;4.57;;;16.00;99.90;;;;;;5076535;28;20341;-72
2022/05/25 00:48:10;;;;;;;4.90;4.40;;;16.00;99.90;;;;;;5078102;28;20217;-71
2022/05/25 00:53:18;;;;;;;4.97;4.47;;;15.90;99.90;;;;;;5074837;28;20220;-71
2022/05/25 00:55:45;;;;;;;5.73;4.90;;;15.90;99.90;;;;;;5076847;28;20279;-71
2022/05/25 00:58:13;;;;;;;6.10;5.17;;;15.90;99.90;;;;;;5077581;28;20232;-72
2022/05/25 01:00:39;;;;;;;4.73;4.33;;;15.90;99.90;;;;;;5071378;28;20215;-72
2022/05/25 01:03:11;;;;;;;5.50;4.93;;;15.90;99.90;;;;;;5070054;28;20297;-72
2022/05/25 01:05:45;;;;;;;5.03;4.63;;;15.90;99.90;;;;;;5075509;28;20558;-71
2022/05/25 01:08:30;;;;;;;4.90;4.40;;;15.80;99.90;;;;;;5075636;28;20194;-72
2022/05/25 01:11:13;;;;;;;5.27;4.77;;;15.80;99.90;;;;;;5072639;28;20202;-72
2022/05/25 01:13:45;;;;;;;5.30;4.80;;;15.70;99.90;;;;;;5074256;28;20296;-72
2022/05/25 01:16:26;;;;;;;6.60;4.83;;;15.70;99.90;;;;;;5075436;28;20720;-71
2022/05/25 01:19:01;;;;;;;6.67;5.37;;;15.70;99.90;;;;;;5068192;28;20205;-71
2022/05/25 01:21:37;;;;;;;5.27;4.77;;;15.70;99.90;;;;;;5077032;28;20208;-71
2022/05/25 01:24:18;;;;;;;5.70;5.20;;;15.60;99.90;;;;;;5069627;28;20197;-70
2022/05/25 01:27:13;;;;;;;5.63;5.03;;;15.60;99.90;;;;;;5067734;28;20645;-71
2022/05/25 01:30:00;;;;;;;6.10;5.50;;;15.60;99.90;;;;;;5071795;28;20628;-72
2022/05/25 01:32:32;;;;;;;6.03;5.17;;;15.60;99.90;;;;;;5075481;28;20295;-72
2022/05/25 01:35:05;;;;;;;6.27;5.43;;;15.60;99.90;;;;;;5075111;28;20215;-71
2022/05/25 01:37:40;;;;;;;7.67;5.90;;;15.60;99.90;;;;;;5075734;28;20296;-71
2022/05/25 01:40:17;;;;;;;5.70;5.20;;;15.60;99.90;;;;;;5071572;28;20201;-72
2022/05/25 01:42:50;;;;;;;6.47;5.80;;;15.60;99.90;;;;;;5068154;28;20205;-72
2022/05/25 01:45:21;;;;;;;7.70;5.70;;;15.60;99.90;;;;;;5075969;28;20202;-71
2022/05/25 01:47:49;;;;;;;6.47;5.17;;;15.60;99.90;;;;;;5069463;28;20543;-71
2022/05/25 01:50:20;;;;;;;5.80;5.30;;;15.60;99.90;;;;;;5083813;28;20205;-71
2022/05/25 01:52:50;;;;;;;9.17;5.97;;;15.60;99.90;;;;;;5072595;28;20292;-71
2022/05/25 01:55:22;;;;;;;6.07;5.47;;;15.60;99.90;;;;;;5075837;28;20279;-71
2022/05/25 01:57:54;;;;;;;9.13;5.50;;;15.60;99.90;;;;;;5074977;28;20240;-70
2022/05/25 02:00:32;;;;;;;6.00;5.40;;;15.60;99.90;;;;;;5074569;28;20193;-70
2022/05/25 02:05:52;;;;;;;6.10;5.50;;;15.60;99.90;;;;;;5075650;28;20224;-71
2022/05/25 02:08:30;;;;;;;5.50;4.83;;;15.50;99.90;;;;;;5074021;28;20196;-71
2022/05/25 02:11:05;;;;;;;6.60;6.00;;;15.50;99.90;;;;;;5075423;28;20285;-71
2022/05/25 02:13:47;;;;;;;6.17;5.57;;;15.60;99.90;;;;;;5072467;28;20700;-71
2022/05/25 02:16:24;;;;;;;6.53;5.93;;;15.60;99.90;;;;;;5074583;28;20235;-71
2022/05/25 02:18:58;;;;;;;6.57;5.97;;;15.60;99.90;;;;;;5076153;28;20292;-71
2022/05/25 02:21:32;;;;;;;7.97;6.03;;;15.50;99.90;;;;;;5074112;28;20209;-70
2022/05/25 02:24:05;;;;;;;8.97;6.70;;;15.60;99.90;;;;;;5066846;28;20236;-71
2022/05/25 02:26:35;;;;;;;6.77;6.07;;;15.50;99.90;;;;;;5074651;28;20201;-71
2022/05/25 02:29:08;;;;;;;6.63;6.00;;;15.50;99.90;;;;;;5078029;28;20311;-71
2022/05/25 02:31:42;;;;;;;7.27;6.50;;;15.50;99.90;;;;;;5078785;28;20327;-71
2022/05/25 02:34:12;;;;;;;7.27;6.47;;;15.50;99.90;;;;;;5080306;28;20213;-71
2022/05/25 02:36:40;;;;;;;6.97;6.27;;;15.50;99.90;;;;;;5082052;28;20299;-71
2022/05/25 02:39:09;;;;;;;6.30;5.70;;;15.50;99.90;;;;;;5082213;28;20680;-70
2022/05/25 02:41:42;;;;;;;8.77;6.23;;;15.50;99.90;;;;;;5076918;28;20201;-71
2022/05/25 02:44:10;;;;;;;8.37;6.13;;;15.50;99.90;;;;;;5080266;28;20253;-70
2022/05/25 02:46:38;;;;;;;10.07;7.00;;;15.60;99.90;;;;;;5080904;28;20205;-70
2022/05/25 02:49:05;;;;;;;7.23;6.53;;;15.50;99.90;;;;;;5080538;28;20193;-71
2022/05/25 02:51:32;;;;;;;8.10;6.87;;;15.60;99.90;;;;;;5079917;28;20247;-71
2022/05/25 02:53:59;;;;;;;8.13;6.87;;;15.60;99.90;;;;;;5079137;28;20768;-72
2022/05/25 02:56:26;;;;;;;6.87;6.17;;;15.60;99.90;;;;;;5080352;28;20296;-71
2022/05/25 02:58:53;;;;;;;9.27;6.90;;;15.60;99.90;;;;;;5080946;28;20235;-71
2022/05/25 03:01:20;;;;;;;8.60;7.17;;;15.60;99.90;;;;;;5081298;28;20207;-71
2022/05/25 03:03:48;;;;;;;7.20;6.27;;;15.60;99.90;;;;;;5080693;28;20251;-71
2022/05/25 03:06:15;;;;;;;6.60;6.00;;;15.60;99.90;;;;;;5081154;28;20244;-71
2022/05/25 03:08:42;;;;;;;8.63;6.87;;;15.60;99.90;;;;;;5082454;28;20282;-71
2022/05/25 03:11:09;;;;;;;8.50;6.80;;;15.60;99.90;;;;;;5082176;28;20228;-72
2022/05/25 03:13:36;;;;;;;8.73;7.30;;;15.70;99.90;;;;;;5078706;28;20213;-71
2022/05/25 03:16:07;;;;;;;8.13;7.27;;;15.70;99.90;;;;;;5081462;28;20209;-71
2022/05/25 03:18:34;;;;;;;8.67;7.53;;;15.70;99.90;;;;;;5081043;28;20208;-72
2022/05/25 03:21:03;;;;;;;8.37;7.53;;;15.70;99.90;;;;;;5081541;28;20237;-71
2022/05/25 03:23:29;;;;;;;8.20;7.17;;;15.80;99.90;;;;;;5077907;28;20245;-71
2022/05/25 03:25:56;;;;;;;7.90;6.60;;;15.80;99.90;;;;;;5073118;28;20193;-71
2022/05/25 03:28:23;;;;;;;7.97;7.10;;;15.80;99.90;;;;;;5081668;28;20304;-69
2022/05/25 03:30:50;;;;;;;8.97;7.40;;;15.80;99.90;;;;;;5079993;28;20303;-70
2022/05/25 03:33:17;;;;;;;8.47;7.33;;;15.80;99.90;;;;;;5078307;28;20264;-71
2022/05/25 03:35:44;;;;;;;8.47;7.67;;;15.90;99.90;;;;;;5080482;28;20243;-70
2022/05/25 03:38:13;;;;;;;8.53;7.63;;;15.90;99.90;;;;;;5079989;28;20665;-70
2022/05/25 03:40:41;;;;;;;10.17;7.63;;;16.00;99.90;;;;;;5077285;28;20237;-71
2022/05/25 03:43:10;;;;;;;8.30;7.50;;;16.00;99.90;;;;;;5077334;28;20304;-70
2022/05/25 03:45:37;;;;;;;8.43;7.63;;;16.00;99.90;;;;;;5075296;28;20600;-70
2022/05/25 03:48:07;;;;;;;7.63;6.93;;;16.10;99.90;;;;;;5071395;28;20204;-72
2022/05/25 03:50:35;;;;;;;8.57;7.47;;;16.10;99.90;;;;;;5088630;28;20251;-72
2022/05/25 03:53:01;;;;;;;8.67;7.73;;;16.20;99.90;;;;;;5082645;28;20213;-72
2022/05/25 03:55:30;;;;;;;8.30;7.20;;;16.20;99.90;;;;;;5070195;28;20747;-71
2022/05/25 03:57:57;;;;;;;8.93;8.03;;;16.20;99.90;;;;;;5075830;28;20207;-73
2022/05/25 04:00:24;;;;;;;8.13;7.33;;;16.20;99.90;;;;;;5077079;28;20303;-73
2022/05/25 04:02:51;;;;;;;7.90;7.13;;;16.20;99.90;;;;;;5076322;28;20197;-72
2022/05/25 04:05:18;;;;;;;9.23;8.33;;;16.30;99.90;;;;;;5074776;28;20197;-72
2022/05/25 04:07:48;;;;;;;7.70;6.93;;;16.30;99.90;;;;;;5075405;28;20247;-72
2022/05/25 04:10:17;;;;;;;8.37;7.53;;;16.30;99.90;;;;;;5073895;28;20229;-72
2022/05/25 04:12:46;;;;;;;8.43;7.70;;;16.30;99.90;;;;;;5075897;28;20236;-71
2022/05/25 04:15:15;;;;;;;9.23;7.40;;;16.40;99.90;;;;;;5075757;28;20320;-71
2022/05/25 04:17:42;;;;;;;8.83;8.00;;;16.40;99.90;;;;;;5076991;28;20205;-71
2022/05/25 04:20:11;;;;;;;9.23;7.97;;;16.50;99.90;;;;;;5076221;28;20247;-72
2022/05/25 04:22:41;;;;;;;8.43;7.63;;;16.50;99.90;;;;;;5076988;28;20288;-72
2022/05/25 04:25:10;;;;;;;8.65;7.78;;;16.60;99.90;;;;;;5071541;28;20597;-71
2022/05/25 04:27:38;;;;;;;11.07;8.50;;;16.70;99.90;;;;;;5074288;28;20215;-71
2022/05/25 04:30:08;;;;;;;10.57;9.47;;;16.70;99.90;;;;;;5075935;28;20221;-72
2022/05/25 04:32:35;;;;;;;8.93;8.02;;;16.80;99.90;;;;;;5074227;28;20244;-72
2022/05/25 04:35:02;;;;;;;11.60;8.57;;;16.80;99.90;;;;;;5075803;28;20312;-71
2022/05/25 04:40:25;;;;;;;9.20;8.18;;;16.90;99.90;;;;;;5054314;28;20237;-71
2022/05/25 04:42:53;;;;;;;10.77;8.35;;;17.00;99.90;;;;;;5095414;28;20244;-71
2022/05/25 04:45:25;;;;;;;9.88;7.85;;;17.00;99.90;;;;;;5076767;28;20213;-71
2022/05/25 04:47:52;;;;;;;8.18;7.38;;;17.00;99.90;;;;;;5076630;28;20303;-72
2022/05/25 04:50:22;;;;;;;10.23;8.48;;;17.10;99.90;;;;;;5075836;28;20201;-72
2022/05/25 04:52:49;;;;;;;10.25;8.57;;;17.20;99.90;;;;;;5072106;28;20236;-71
2022/05/25 04:58:22;;;;;;;10.68;8.20;;;17.30;99.90;;;;;;5066421;28;20193;-72
2022/05/25 05:00:51;;;;;;;12.23;8.48;;;17.40;99.90;;;;;;5074971;28;20200;-72
2022/05/25 05:03:19;;;;;;;9.50;8.60;;;17.50;99.90;;;;;;5073876;28;20211;-72
2022/05/25 05:05:47;;;;;;;10.82;9.32;;;17.60;99.90;;;;;;5073679;28;20557;-72
2022/05/25 05:08:14;;;;;;;10.68;9.38;;;17.70;99.90;;;;;;5076035;28;20572;-72
2022/05/25 05:10:42;;;;;;;12.45;10.05;;;17.70;99.90;;;;;;5075695;28;20292;-71
2022/05/25 05:13:09;;;;;;;11.63;10.40;;;17.80;99.90;;;;;;5074610;28;20201;-72
2022/05/25 05:15:38;;;;;;;10.02;8.90;;;17.80;99.90;;;;;;5085316;28;20240;-71
2022/05/25 05:18:09;;;;;;;10.63;9.63;;;17.80;99.90;;;;;;5084544;28;20233;-70
2022/05/25 05:20:37;;;;;;;12.07;9.45;;;17.90;99.90;;;;;;5077547;28;20288;-70
2022/05/25 05:23:05;;;;;;;10.25;9.13;;;17.90;99.90;;;;;;5082593;28;20259;-71
2022/05/25 05:25:32;;;;;;;11.18;9.98;;;17.90;99.90;;;;;;5070785;28;20206;-71
2022/05/25 05:28:05;;;;;;;13.23;8.95;;;17.90;99.90;;;;;;5070733;28;20236;-70
2022/05/25 05:30:34;;;;;;;10.48;9.38;;;18.00;99.90;;;;;;5078880;28;20260;-71
2022/05/25 05:33:01;;;;;;;11.65;9.95;;;18.00;99.90;;;;;;5081493;28;20616;-71
2022/05/25 05:35:31;;;;;;;14.73;10.43;;;18.00;99.90;;;;;;5077797;28;20308;-72
2022/05/25 05:37:58;;;;;;;12.02;10.48;;;17.90;99.90;;;;;;5075191;28;20201;-71
2022/05/25 05:40:26;;;;;;;12.70;11.13;;;17.90;99.90;;;;;;5075808;28;20299;-72
2022/05/25 05:42:54;;;;;;;14.30;11.68;;;17.90;99.90;;;;;;5075090;28;20264;-71
2022/05/25 05:45:24;;;;;;;12.02;10.93;;;17.90;99.90;;;;;;5070507;28;20208;-70
2022/05/25 05:47:55;;;;;;;15.82;12.23;;;17.90;99.90;;;;;;5074686;28;20207;-72
2022/05/25 05:50:24;;;;;;;16.77;12.30;;;17.90;99.90;;;;;;5071293;28;20204;-71
2022/05/25 05:52:56;;;;;;;15.57;12.52;;;17.90;99.90;;;;;;5075388;28;20236;-72
2022/05/25 05:55:23;;;;;;;16.33;12.98;;;18.00;99.90;;;;;;5077555;28;20217;-70
2022/05/25 05:57:51;;;;;;;17.65;14.10;;;18.00;99.90;;;;;;5080720;28;20208;-68
2022/05/25 06:00:18;;;;;;;21.52;14.57;;;18.10;99.90;;;;;;5073919;28;20251;-69
2022/05/25 06:02:45;;;;;;;20.67;14.90;;;18.10;99.90;;;;;;5068011;28;20260;-70
2022/05/25 06:05:13;;;;;;;19.45;15.55;;;18.10;99.90;;;;;;5078725;28;20199;-70
2022/05/25 06:07:40;;;;;;;23.42;16.55;;;18.20;99.90;;;;;;5082790;28;20266;-71
2022/05/25 06:10:10;;;;;;;23.92;15.73;;;18.20;99.90;;;;;;5085350;28;20205;-70
2022/05/25 06:12:37;;;;;;;23.13;17.08;;;18.20;99.90;;;;;;5074368;28;20394;-69
2022/05/25 06:19:25;;;;;;;24.42;17.73;;;18.20;99.90;;;;;;5072679;28;20236;-70
2022/05/25 06:20:39;;;;;;;28.67;18.90;;;18.20;99.90;;;;;;5055551;28;20220;-70
2022/05/25 06:23:06;;;;;;;27.27;17.25;;;18.30;99.90;;;;;;5072814;28;20740;-69
2022/05/25 06:25:34;;;;;;;26.02;17.83;;;18.30;99.90;;;;;;5075106;28;20233;-71
2022/05/25 06:28:01;;;;;;;30.42;18.33;;;18.30;99.90;;;;;;5075735;28;20379;-72
2022/05/25 06:30:30;;;;;;;25.98;17.70;;;18.30;99.90;;;;;;5072684;28;20275;-74
2022/05/25 06:32:57;;;;;;;25.73;17.52;;;18.30;99.90;;;;;;5078275;28;20228;-74
2022/05/25 06:35:24;;;;;;;28.27;18.65;;;18.30;99.90;;;;;;5076008;28;20233;-70
2022/05/25 06:37:51;;;;;;;27.98;17.70;;;18.40;99.90;;;;;;5068205;28;20251;-69
2022/05/25 06:40:18;;;;;;;28.23;17.80;;;18.50;99.90;;;;;;5071986;28;20643;-71
2022/05/25 06:42:48;;;;;;;27.08;18.10;;;18.60;99.90;;;;;;5069703;28;20288;-71
2022/05/25 06:45:15;;;;;;;24.85;16.98;;;18.70;99.90;;;;;;5064972;28;20209;-70
2022/05/25 06:47:42;;;;;;;27.65;18.00;;;18.80;99.90;;;;;;5075257;28;20243;-71
2022/05/25 06:50:10;;;;;;;27.10;18.20;;;18.90;99.90;;;;;;5074000;28;20208;-70
2022/05/25 06:52:37;;;;;;;25.08;17.15;;;18.90;99.90;;;;;;5072179;28;20628;-70
2022/05/25 06:55:05;;;;;;;27.70;17.27;;;19.00;99.90;;;;;;5076196;28;20661;-71
2022/05/25 06:57:32;;;;;;;22.85;16.83;;;19.00;99.90;;;;;;5072613;28;20267;-69
2022/05/25 07:00:00;;;;;;;27.10;15.75;;;19.00;99.90;;;;;;5068546;28;20208;-69
2022/05/25 07:02:28;;;;;;;20.42;15.57;;;19.00;99.90;;;;;;5069922;28;20247;-70
2022/05/25 07:04:55;;;;;;;21.73;16.40;;;19.00;99.90;;;;;;5071397;28;20214;-71
2022/05/25 07:07:22;;;;;;;21.83;15.90;;;19.00;99.90;;;;;;5073961;28;20870;-71
2022/05/25 07:09:50;;;;;;;21.33;16.75;;;19.10;99.90;;;;;;5074170;28;20213;-73
2022/05/25 07:12:17;;;;;;;22.05;17.58;;;19.10;99.90;;;;;;5069162;28;20289;-71
2022/05/25 07:14:44;;;;;;;23.33;16.45;;;19.10;99.90;;;;;;5075576;28;20282;-76
2022/05/25 07:17:13;;;;;;;23.10;15.73;;;19.10;99.90;;;;;;5077126;28;20623;-74
2022/05/25 07:19:40;;;;;;;24.08;17.17;;;19.20;99.90;;;;;;5076947;28;20637;-75
2022/05/25 07:22:11;;;;;;;21.38;16.92;;;19.20;99.90;;;;;;5085323;28;20201;-75
2022/05/25 07:24:39;;;;;;;20.88;15.27;;;19.30;99.90;;;;;;5077632;28;20244;-69
2022/05/25 07:27:06;;;;;;;22.05;15.38;;;19.30;99.90;;;;;;5075545;28;20202;-71
2022/05/25 07:29:33;;;;;;;21.60;15.75;;;19.40;99.90;;;;;;5077252;28;20252;-71
2022/05/25 07:32:03;;;;;;;22.75;16.00;;;19.50;99.90;;;;;;5073602;28;20527;-72
2022/05/25 07:34:35;;;;;;;20.88;16.73;;;19.60;99.90;;;;;;5089892;28;20658;-72
2022/05/25 07:37:05;;;;;;;26.60;17.80;;;19.70;99.90;;;;;;5073983;28;20281;-73
2022/05/25 07:39:37;;;;;;;21.27;16.38;;;19.70;99.90;;;;;;5075045;28;20303;-73
2022/05/25 07:42:05;;;;;;;19.70;16.15;;;19.80;99.90;;;;;;5085927;28;20197;-72
2022/05/25 07:44:36;;;;;;;18.23;16.23;;;19.80;99.90;;;;;;5078343;28;20205;-71
2022/05/25 07:47:04;;;;;;;19.50;15.68;;;20.00;99.90;;;;;;5088190;28;20539;-72
2022/05/25 07:49:32;;;;;;;19.30;15.70;;;20.00;99.90;;;;;;5067091;28;20289;-71
2022/05/25 07:51:59;;;;;;;21.45;16.27;;;20.10;99.90;;;;;;5069575;28;20227;-71
2022/05/25 07:54:26;;;;;;;18.60;15.30;;;20.20;99.90;;;;;;5069951;28;20743;-72
2022/05/25 07:56:53;;;;;;;21.90;16.42;;;20.20;99.90;;;;;;5070244;28;20223;-70
2022/05/25 07:59:20;;;;;;;22.33;16.85;;;20.30;99.90;;;;;;5070615;28;20299;-70
2022/05/25 08:07:24;;;;;;;21.70;17.25;;;20.60;99.90;;;;;;5078056;28;20208;-70
2022/05/25 08:09:54;;;;;;;18.42;15.88;;;20.60;99.90;;;;;;5084158;28;20274;-70
2022/05/25 08:12:22;;;;;;;21.98;16.33;;;20.50;99.90;;;;;;5088297;28;20205;-70
2022/05/25 08:14:49;;;;;;;19.65;16.92;;;20.40;99.90;;;;;;5075577;28;20255;-72
2022/05/25 08:17:17;;;;;;;20.05;17.88;;;20.40;99.90;;;;;;5063351;28;20226;-70
2022/05/25 08:19:45;;;;;;;20.02;16.88;;;20.40;99.90;;;;;;5073561;28;20240;-70
2022/05/25 08:22:12;;;;;;;21.92;19.00;;;20.30;99.90;;;;;;5074676;28;20641;-70
2022/05/25 08:24:39;;;;;;;22.85;17.70;;;20.20;99.90;;;;;;5070629;28;20205;-71
2022/05/25 08:27:07;;;;;;;20.58;17.08;;;20.10;99.90;;;;;;5072944;28;20270;-70
2022/05/25 08:29:34;;;;;;;18.58;16.58;;;20.10;99.90;;;;;;5070100;28;20233;-71
2022/05/25 08:32:01;;;;;;;20.70;17.45;;;20.00;99.90;;;;;;5068273;28;20251;-70
2022/05/25 08:34:28;;;;;;;19.58;17.30;;;19.90;99.90;;;;;;5069608;28;20255;-69
2022/05/25 08:36:57;;;;;;;20.95;18.20;;;19.80;99.90;;;;;;5077582;28;20571;-69
2022/05/25 08:39:24;;;;;;;20.63;18.30;;;19.80;99.90;;;;;;5074693;28;20277;-70
2022/05/25 08:41:54;;;;;;;24.63;19.40;;;19.60;99.90;;;;;;5069373;28;20272;-69
2022/05/25 08:44:23;;;;;;;24.15;19.33;;;19.60;99.90;;;;;;5072011;28;20228;-69
2022/05/25 08:46:54;;;;;;;24.73;20.40;;;19.50;99.90;;;;;;5068997;28;20213;-69
2022/05/25 08:49:22;;;;;;;21.70;19.35;;;19.50;99.90;;;;;;5069662;28;20243;-69
2022/05/25 08:51:52;;;;;;;22.42;19.55;;;19.40;99.90;;;;;;5069035;28;20201;-69
2022/05/25 08:54:21;;;;;;;21.25;18.33;;;19.30;99.90;;;;;;5072627;28;20208;-69
2022/05/25 08:56:50;;;;;;;23.02;19.45;;;19.30;99.90;;;;;;5070058;28;20469;-70
2022/05/25 08:59:24;;;;;;;21.35;19.05;;;19.20;99.90;;;;;;5070173;28;20390;-69
2022/05/25 09:01:56;;;;;;;23.40;19.65;;;19.10;99.90;;;;;;5071495;28;20296;-69
2022/05/25 09:04:33;;;;;;;23.67;19.67;;;19.10;99.90;;;;;;5071390;28;20209;-69
2022/05/25 09:07:09;;;;;;;23.92;20.88;;;19.00;99.90;;;;;;5066273;28;20198;-70
2022/05/25 09:09:40;;;;;;;23.48;20.15;;;19.00;99.90;;;;;;5069846;28;20207;-70
2022/05/25 09:12:12;;;;;;;22.58;19.50;;;18.90;99.90;;;;;;5071985;28;20213;-70
2022/05/25 09:14:45;;;;;;;31.60;22.05;;;18.90;99.90;;;;;;5079418;28;20244;-70
2022/05/25 09:17:18;;;;;;;33.20;25.50;;;18.90;99.90;;;;;;5074147;28;20206;-70
2022/05/25 09:19:48;;;;;;;36.85;27.70;;;18.80;99.90;;;;;;5075048;28;20197;-71
2022/05/25 09:22:19;;;;;;;37.40;26.02;;;18.70;99.90;;;;;;5067204;28;20254;-70
2022/05/25 09:24:47;;;;;;;34.97;26.10;;;18.70;99.90;;;;;;5069623;28;20205;-71
2022/05/25 09:27:17;;;;;;;40.00;27.52;;;18.60;99.90;;;;;;5069651;28;20201;-70
2022/05/25 09:29:44;;;;;;;43.47;29.75;;;18.50;99.90;;;;;;5068896;28;20221;-72
2022/05/25 09:32:28;;;;;;;44.13;29.55;;;18.40;99.90;;;;;;5073795;28;20222;-73
2022/05/25 09:35:01;;;;;;;47.22;30.33;;;18.40;99.90;;;;;;5075557;28;20224;-70
2022/05/25 09:37:35;;;;;;;46.35;31.20;;;18.40;99.90;;;;;;5081779;28;20653;-70
2022/05/25 09:40:10;;;;;;;46.17;31.95;;;18.40;99.90;;;;;;5085802;28;20278;-71
2022/05/25 09:42:38;;;;;;;45.15;31.45;;;18.40;99.90;;;;;;5082392;28;20200;-72
2022/05/25 09:45:10;;;;;;;48.88;32.20;;;18.30;99.90;;;;;;5075287;28;20205;-70
2022/05/25 09:47:42;;;;;;;46.35;32.47;;;18.20;99.90;;;;;;5073748;28;20239;-70
2022/05/25 09:50:15;;;;;;;49.67;33.60;;;18.20;99.90;;;;;;5075714;28;20557;-70
2022/05/25 09:52:47;;;;;;;43.65;30.30;;;18.10;99.90;;;;;;5067604;28;20211;-69
2022/05/25 09:55:23;;;;;;;43.38;31.50;;;18.10;99.90;;;;;;5074712;28;20304;-69
2022/05/25 09:57:56;;;;;;;39.65;29.92;;;18.00;99.90;;;;;;5075941;28;20694;-70
2022/05/25 10:00:38;;;;;;;40.85;30.27;;;18.00;99.90;;;;;;5075235;28;20201;-70
2022/05/25 10:03:09;;;;;;;38.03;27.45;;;17.90;99.90;;;;;;5069287;28;20276;-70
2022/05/25 10:05:52;;;;;;;37.80;27.52;;;17.90;99.90;;;;;;5075654;28;20201;-70
2022/05/25 10:08:28;;;;;;;33.00;26.85;;;17.90;99.90;;;;;;5072813;28;20200;-70
2022/05/25 10:11:00;;;;;;;31.10;25.83;;;17.90;99.90;;;;;;5076603;28;20204;-70
2022/05/25 10:13:30;;;;;;;30.20;26.23;;;17.90;99.90;;;;;;5078519;28;20200;-69
2022/05/25 10:15:58;;;;;;;32.75;26.65;;;18.00;99.90;;;;;;5063964;28;20199;-69
2022/05/25 10:18:36;;;;;;;31.25;25.70;;;18.00;99.90;;;;;;5086438;28;20206;-68
2022/05/25 10:21:04;;;;;;;29.15;25.33;;;18.00;99.90;;;;;;5073297;28;20212;-73
2022/05/25 10:23:31;;;;;;;29.35;24.30;;;18.00;99.90;;;;;;5075393;28;20224;-73
2022/05/25 10:26:11;;;;;;;26.30;23.48;;;18.00;99.90;;;;;;5075930;28;20265;-72
2022/05/25 10:28:46;;;;;;;24.35;21.70;;;18.10;99.90;;;;;;5070299;28;20224;-70
2022/05/25 10:37:00;;;;;;;16.17;14.57;;;18.20;99.90;;;;;;5078890;28;20213;-71
2022/05/25 10:39:35;;;;;;;15.65;13.63;;;18.30;99.90;;;;;;5077014;28;20207;-71
2022/05/25 10:42:11;;;;;;;14.77;12.70;;;18.40;99.90;;;;;;5069430;28;20224;-69
2022/05/25 10:44:47;;;;;;;17.30;13.35;;;18.40;99.90;;;;;;5073037;28;20265;-71
2022/05/25 10:47:28;;;;;;;16.75;13.55;;;18.50;99.90;;;;;;5071356;28;20231;-69
2022/05/25 10:49:55;;;;;;;14.38;12.95;;;18.40;99.90;;;;;;5074391;28;20203;-70
2022/05/25 10:52:28;;;;;;;13.40;12.05;;;18.50;99.90;;;;;;5077470;28;20635;-70
2022/05/25 10:54:56;;;;;;;13.38;11.70;;;18.40;99.90;;;;;;5078044;28;20765;-70
2022/05/25 10:57:57;;;;;;;12.95;11.65;;;18.40;99.90;;;;;;5078276;28;20311;-72
2022/05/25 11:00:45;;;;;;;12.82;11.60;;;18.40;99.90;;;;;;5073148;28;20219;-71
2022/05/25 11:03:32;;;;;;;12.55;11.30;;;18.40;99.90;;;;;;5066585;28;20207;-71
2022/05/25 11:06:05;;;;;;;12.77;11.02;;;18.30;99.90;;;;;;5074994;28;20521;-70
2022/05/25 11:08:47;;;;;;;10.88;9.77;;;18.30;99.90;;;;;;5077267;28;20281;-69
2022/05/25 11:11:24;;;;;;;11.30;9.73;;;18.30;99.90;;;;;;5085068;28;20276;-69
2022/05/25 11:14:09;;;;;;;9.98;8.98;;;18.30;99.90;;;;;;5091735;28;20270;-70
2022/05/25 11:16:44;;;;;;;9.07;8.27;;;18.20;99.90;;;;;;5084837;28;20247;-71
2022/05/25 11:19:29;;;;;;;10.75;7.68;;;18.10;99.90;;;;;;5077013;28;20566;-71
2022/05/25 11:22:13;;;;;;;8.75;6.80;;;18.10;99.90;;;;;;5077808;28;20661;-71
2022/05/25 11:24:56;;;;;;;8.18;7.38;;;18.00;99.90;;;;;;5087905;28;20280;-69
2022/05/25 11:27:44;;;;;;;9.65;7.15;;;17.90;99.90;;;;;;5078965;28;20201;-71
2022/05/25 11:30:18;;;;;;;7.90;7.10;;;17.80;99.90;;;;;;5075436;28;20217;-72
2022/05/25 11:33:07;;;;;;;7.57;6.93;;;17.80;99.90;;;;;;5082300;28;20196;-71
2022/05/25 11:35:45;;;;;;;7.75;6.88;;;17.70;99.90;;;;;;5089363;28;20333;-71
2022/05/25 11:38:23;;;;;;;6.78;6.20;;;17.70;99.90;;;;;;5067944;28;20286;-71
2022/05/25 11:41:00;;;;;;;7.22;6.53;;;17.80;99.90;;;;;;5078001;28;20284;-72
2022/05/25 11:44:00;;;;;;;7.20;5.97;;;17.80;99.90;;;;;;5095266;28;20251;-69
2022/05/25 11:46:38;;;;;;;7.80;5.25;;;17.80;99.90;;;;;;5070467;28;20251;-71
2022/05/25 11:49:42;;;;;;;7.22;5.75;;;17.70;99.90;;;;;;5078256;28;20228;-69
2022/05/25 11:52:31;;;;;;;6.38;5.78;;;17.70;99.90;;;;;;5073318;28;20196;-69
2022/05/25 11:55:10;;;;;;;5.88;5.38;;;17.70;99.90;;;;;;5079593;28;20399;-70
2022/05/25 11:57:43;;;;;;;6.93;5.93;;;17.60;99.90;;;;;;5073956;28;20217;-70
2022/05/25 12:00:27;;;;;;;9.40;6.03;;;17.50;99.90;;;;;;5070212;28;20222;-70
2022/05/25 12:03:18;;;;;;;6.22;5.63;;;17.50;99.90;;;;;;5075755;28;20616;-70
2022/05/25 12:05:55;;;;;;;6.60;6.00;;;17.40;99.90;;;;;;5071302;28;20209;-69
2022/05/25 12:08:37;;;;;;;5.95;5.32;;;17.40;99.90;;;;;;5078663;28;20201;-70
2022/05/25 12:11:11;;;;;;;6.90;5.82;;;17.30;99.90;;;;;;5075352;28;20288;-70
2022/05/25 12:13:44;;;;;;;7.32;5.72;;;17.30;99.90;;;;;;5071266;28;20582;-71
2022/05/25 12:16:16;;;;;;;8.07;6.63;;;17.20;99.90;;;;;;5075088;28;20304;-70
2022/05/25 12:18:54;;;;;;;7.45;6.13;;;17.10;99.90;;;;;;5075677;28;20223;-71
2022/05/25 12:21:25;;;;;;;7.78;6.75;;;17.10;99.90;;;;;;5070744;28;20296;-70
2022/05/25 12:23:57;;;;;;;7.07;6.45;;;17.10;99.90;;;;;;5073342;28;20202;-70
2022/05/25 12:26:26;;;;;;;6.37;5.80;;;17.10;99.90;;;;;;5067435;28;20297;-69
2022/05/25 12:29:06;;;;;;;6.03;5.43;;;17.10;99.90;;;;;;5074945;28;20294;-71
2022/05/25 12:31:36;;;;;;;8.13;4.88;;;17.00;99.90;;;;;;5074593;28;20213;-70
2022/05/25 12:34:05;;;;;;;6.95;5.30;;;17.00;99.90;;;;;;5081154;28;20216;-69
2022/05/25 12:36:32;;;;;;;4.93;4.43;;;17.00;99.90;;;;;;5076469;28;20292;-70
2022/05/25 12:38:59;;;;;;;5.88;5.30;;;16.90;99.90;;;;;;5074926;28;20221;-70
2022/05/25 12:41:33;;;;;;;7.30;5.27;;;16.90;99.90;;;;;;5071084;28;20296;-69
2022/05/25 12:48:30;;;;;;;5.68;4.85;;;16.80;99.90;;;;;;5073441;28;20208;-70
2022/05/25 12:49:44;;;;;;;6.03;4.68;;;16.70;99.90;;;;;;5072571;28;20204;-70
2022/05/25 12:52:43;;;;;;;5.63;5.03;;;16.60;99.90;;;;;;5075434;28;20213;-70
2022/05/25 12:55:34;;;;;;;6.45;4.15;;;16.50;99.90;;;;;;5075682;28;20623;-70
2022/05/25 12:58:02;;;;;;;4.25;3.75;;;16.30;99.90;;;;;;5051274;28;20702;-69
2022/05/25 13:00:41;;;;;;;14.15;3.58;;;16.20;99.90;;;;;;5070426;28;20653;-71
2022/05/25 13:03:40;;;;;;;5.72;2.90;;;16.20;99.90;;;;;;5070261;28;20237;-69
2022/05/25 13:06:09;;;;;;;4.93;2.20;;;16.00;99.90;;;;;;5068400;28;20284;-69
2022/05/25 13:09:10;;;;;;;3.17;2.07;;;16.00;99.90;;;;;;5082427;28;20649;-69
2022/05/25 13:11:43;;;;;;;2.30;2.10;;;15.80;99.90;;;;;;5074648;28;20613;-69
2022/05/25 13:14:47;;;;;;;5.23;2.00;;;15.80;99.90;;;;;;5070943;28;20264;-70
2022/05/25 13:17:43;;;;;;;2.37;2.10;;;15.70;99.90;;;;;;5065920;28;20240;-70
2022/05/25 13:20:15;;;;;;;2.57;1.93;;;15.70;99.90;;;;;;5077588;28;20225;-70
2022/05/25 13:22:43;;;;;;;5.37;2.13;;;15.70;99.90;;;;;;5071202;28;20705;-71
2022/05/25 13:25:36;;;;;;;4.47;2.27;;;15.70;99.90;;;;;;5069812;28;20251;-71
2022/05/25 13:28:18;;;;;;;3.07;1.70;;;15.70;99.90;;;;;;5074163;28;20280;-70
2022/05/25 13:31:03;;;;;;;3.47;1.73;;;15.70;99.90;;;;;;5075460;28;20208;-69